createdAt,value
2023-04-27T00:01:43.432Z,10.73
2023-04-27T00:04:10.415Z,10.00
2023-04-27T00:06:37.380Z,13.05
2023-04-27T00:09:04.685Z,11.77
2023-04-27T00:11:31.621Z,9.35
2023-04-27T00:13:58.643Z,10.75
2023-04-27T00:16:25.891Z,10.70
2023-04-27T00:18:52.726Z,10.10
2023-04-27T00:21:19.801Z,11.23
2023-04-27T00:23:46.587Z,10.40
2023-04-27T00:26:13.485Z,10.38
2023-04-27T00:28:43.483Z,9.13
2023-04-27T00:31:10.465Z,12.18
2023-04-27T00:33:37.583Z,10.98
2023-04-27T00:36:04.901Z,13.75
2023-04-27T00:38:31.738Z,9.98
2023-04-27T00:41:07.328Z,9.48
2023-04-27T00:43:43.699Z,10.02
2023-04-27T00:46:13.708Z,10.60
2023-04-27T00:48:41.895Z,9.50
2023-04-27T00:51:09.034Z,9.20
2023-04-27T00:53:37.478Z,13.05
2023-04-27T00:56:06.794Z,9.82
2023-04-27T00:58:33.751Z,15.73
2023-04-27T01:01:01.307Z,9.00
2023-04-27T01:03:47.668Z,11.25
2023-04-27T01:06:14.699Z,11.98
2023-04-27T01:08:43.854Z,12.52
2023-04-27T01:11:10.779Z,12.02
2023-04-27T01:13:39.362Z,11.82
2023-04-27T01:16:06.457Z,12.07
2023-04-27T01:18:33.784Z,12.27
2023-04-27T01:21:01.226Z,9.63
2023-04-27T01:23:28.113Z,8.65
2023-04-27T01:25:55.009Z,9.45
2023-04-27T01:28:21.809Z,14.80
2023-04-27T01:30:48.716Z,11.75
2023-04-27T01:33:15.536Z,12.90
2023-04-27T01:35:43.165Z,8.50
2023-04-27T01:38:10.167Z,13.38
2023-04-27T01:40:38.154Z,16.52
2023-04-27T01:43:05.152Z,8.63
2023-04-27T01:45:32.217Z,11.63
2023-04-27T01:48:00.279Z,12.55
2023-04-27T01:50:27.459Z,13.43
2023-04-27T01:52:54.391Z,10.88
2023-04-27T01:55:21.699Z,12.55
2023-04-27T01:57:48.537Z,13.05
2023-04-27T02:00:16.384Z,12.63
2023-04-27T02:02:51.306Z,13.88
2023-04-27T02:05:18.484Z,12.30
2023-04-27T02:07:46.464Z,12.65
2023-04-27T02:10:13.235Z,9.32
2023-04-27T02:12:40.102Z,16.52
2023-04-27T02:15:09.007Z,11.73
2023-04-27T02:17:35.904Z,12.98
2023-04-27T02:20:02.791Z,12.18
2023-04-27T02:22:29.599Z,10.73
2023-04-27T02:24:56.804Z,11.63
2023-04-27T02:27:23.696Z,12.50
2023-04-27T02:29:51.101Z,17.45
2023-04-27T02:32:18.399Z,13.75
2023-04-27T02:34:45.399Z,11.15
2023-04-27T02:37:12.378Z,12.05
2023-04-27T02:39:39.216Z,10.68
2023-04-27T02:42:06.687Z,13.35
2023-04-27T02:44:33.482Z,10.90
2023-04-27T02:47:00.492Z,12.98
2023-04-27T02:49:27.445Z,11.60
2023-04-27T02:51:54.431Z,14.85
2023-04-27T02:54:21.266Z,13.02
2023-04-27T02:56:48.288Z,12.73
2023-04-27T02:59:15.397Z,15.60
2023-04-27T03:01:42.779Z,10.68
2023-04-27T03:04:10.786Z,13.88
2023-04-27T03:06:37.734Z,17.08
2023-04-27T03:09:04.914Z,15.65
2023-04-27T03:11:31.744Z,12.20
2023-04-27T03:13:59.097Z,14.18
2023-04-27T03:16:26.138Z,11.00
2023-04-27T03:18:53.100Z,14.05
2023-04-27T03:21:20.260Z,15.32
2023-04-27T03:23:50.530Z,11.85
2023-04-27T03:26:17.422Z,15.07
2023-04-27T03:28:44.829Z,13.77
2023-04-27T03:31:14.186Z,15.18
2023-04-27T03:33:41.984Z,18.73
2023-04-27T03:36:11.158Z,16.98
2023-04-27T03:38:41.924Z,13.93
2023-04-27T03:41:08.955Z,11.93
2023-04-27T03:43:36.447Z,16.52
2023-04-27T03:46:03.374Z,19.65
2023-04-27T03:48:31.017Z,18.20
2023-04-27T03:50:58.066Z,15.38
2023-04-27T03:53:24.977Z,14.98
2023-04-27T03:55:52.245Z,13.45
2023-04-27T03:58:19.089Z,14.60
2023-04-27T04:01:10.229Z,15.20
2023-04-27T04:03:37.825Z,13.10
2023-04-27T04:06:07.627Z,13.82
2023-04-27T04:08:34.720Z,19.17
2023-04-27T04:11:01.782Z,14.48
2023-04-27T04:13:29.769Z,13.07
2023-04-27T04:16:09.050Z,12.48
2023-04-27T04:18:37.027Z,13.23
2023-04-27T04:21:05.899Z,17.10
2023-04-27T04:23:33.002Z,13.07
2023-04-27T04:26:00.063Z,15.13
2023-04-27T04:28:31.272Z,15.13
2023-04-27T04:30:59.185Z,16.23
2023-04-27T04:33:26.461Z,12.60
2023-04-27T04:35:54.454Z,12.30
2023-04-27T04:38:21.383Z,13.52
2023-04-27T04:40:48.535Z,13.00
2023-04-27T04:43:15.400Z,19.70
2023-04-27T04:45:42.786Z,15.00
2023-04-27T04:48:16.499Z,15.48
2023-04-27T04:50:45.175Z,15.73
2023-04-27T04:53:12.998Z,14.75
2023-04-27T04:55:41.113Z,15.02
2023-04-27T04:58:09.149Z,18.80
2023-04-27T05:00:36.000Z,16.05
2023-04-27T05:03:03.074Z,14.93
2023-04-27T05:05:30.077Z,16.98
2023-04-27T05:07:57.034Z,20.23
2023-04-27T05:10:23.830Z,16.88
2023-04-27T05:12:51.043Z,18.20
2023-04-27T05:15:18.169Z,14.13
2023-04-27T05:17:44.964Z,14.13
2023-04-27T05:20:12.127Z,15.32
2023-04-27T05:22:38.965Z,12.93
2023-04-27T05:25:06.728Z,12.73
2023-04-27T05:27:33.543Z,14.18
2023-04-27T05:30:00.712Z,14.32
2023-04-27T05:32:27.641Z,16.73
2023-04-27T05:34:54.492Z,17.48
2023-04-27T05:37:21.387Z,10.98
2023-04-27T05:39:48.223Z,13.32
2023-04-27T05:42:15.066Z,13.93
2023-04-27T05:44:41.920Z,16.25
2023-04-27T05:47:08.760Z,14.52
2023-04-27T05:49:36.037Z,15.30
2023-04-27T05:52:02.882Z,14.23
2023-04-27T05:54:29.859Z,12.48
2023-04-27T05:56:56.725Z,16.30
2023-04-27T05:59:23.606Z,16.63
2023-04-27T06:01:50.468Z,14.13
2023-04-27T06:04:17.765Z,15.25
2023-04-27T06:06:44.949Z,14.20
2023-04-27T06:09:11.975Z,11.77
2023-04-27T06:11:38.920Z,12.15
2023-04-27T06:14:05.776Z,14.50
2023-04-27T06:16:32.702Z,7.25
2023-04-27T06:18:59.655Z,10.13
2023-04-27T06:21:26.606Z,12.65
2023-04-27T06:23:53.407Z,11.73
2023-04-27T06:26:20.267Z,8.88
2023-04-27T06:28:47.151Z,9.20
2023-04-27T06:31:13.990Z,12.05
2023-04-27T06:33:41.479Z,12.00
2023-04-27T06:36:08.973Z,8.20
2023-04-27T06:38:35.779Z,7.05
2023-04-27T06:41:03.314Z,8.55
2023-04-27T06:43:30.930Z,6.32
2023-04-27T06:45:57.776Z,9.30
2023-04-27T06:48:24.671Z,9.07
2023-04-27T06:50:52.059Z,10.98
2023-04-27T06:53:18.994Z,10.07
2023-04-27T06:55:48.316Z,6.28
2023-04-27T06:58:15.428Z,4.80
2023-04-27T07:00:42.351Z,10.25
2023-04-27T07:03:09.427Z,9.45
2023-04-27T07:05:36.465Z,5.30
2023-04-27T07:08:06.143Z,8.23
2023-04-27T07:10:35.530Z,7.10
2023-04-27T07:13:02.404Z,12.30
2023-04-27T07:15:31.671Z,7.30
2023-04-27T07:17:58.688Z,10.35
2023-04-27T07:20:26.853Z,7.97
2023-04-27T07:22:53.873Z,9.82
2023-04-27T07:25:20.867Z,9.93
2023-04-27T07:27:47.970Z,7.13
2023-04-27T07:30:15.742Z,10.20
2023-04-27T07:32:43.184Z,7.15
2023-04-27T07:35:10.249Z,6.97
2023-04-27T07:37:38.341Z,8.32
2023-04-27T07:40:14.430Z,9.43
2023-04-27T07:42:42.199Z,9.60
2023-04-27T07:45:10.324Z,8.38
2023-04-27T07:47:37.810Z,11.15
2023-04-27T07:50:07.373Z,10.38
2023-04-27T07:52:34.246Z,10.20
2023-04-27T07:55:01.259Z,9.43
2023-04-27T07:57:28.165Z,8.40
2023-04-27T07:59:55.201Z,8.95
2023-04-27T08:02:22.192Z,8.60
2023-04-27T08:04:50.222Z,9.43
2023-04-27T08:07:18.318Z,9.25
2023-04-27T08:09:45.867Z,9.63
2023-04-27T08:12:12.700Z,9.05
2023-04-27T08:14:39.548Z,8.45
2023-04-27T08:17:06.996Z,11.40
2023-04-27T08:19:34.398Z,9.13
2023-04-27T08:22:01.276Z,10.80
2023-04-27T08:24:28.095Z,6.82
2023-04-27T08:26:54.989Z,7.82
2023-04-27T08:29:27.626Z,10.38
2023-04-27T08:32:00.224Z,7.70
2023-04-27T08:34:28.869Z,9.23
2023-04-27T08:36:56.969Z,7.03
2023-04-27T08:39:26.263Z,7.57
2023-04-27T08:41:53.437Z,10.52
2023-04-27T08:44:20.640Z,8.82
2023-04-27T08:46:47.694Z,8.57
2023-04-27T08:49:16.563Z,8.52
2023-04-27T08:51:44.536Z,9.82
2023-04-27T08:54:11.469Z,6.25
2023-04-27T08:56:39.513Z,9.60
2023-04-27T08:59:15.795Z,8.32
2023-04-27T09:01:50.013Z,6.70
2023-04-27T09:04:20.571Z,6.60
2023-04-27T09:06:49.040Z,9.25
2023-04-27T09:09:26.327Z,8.10
2023-04-27T09:11:53.261Z,8.85
2023-04-27T09:14:23.813Z,8.70
2023-04-27T09:17:00.060Z,6.57
2023-04-27T09:19:29.338Z,7.50
2023-04-27T09:22:11.752Z,6.82
2023-04-27T09:24:38.761Z,6.65
2023-04-27T09:27:07.549Z,9.10
2023-04-27T09:29:37.338Z,6.50
2023-04-27T09:32:19.152Z,7.15
2023-04-27T09:34:46.335Z,7.80
2023-04-27T09:37:14.800Z,6.43
2023-04-27T09:39:43.000Z,7.88
2023-04-27T09:42:12.219Z,6.55
2023-04-27T09:44:39.144Z,10.82
2023-04-27T09:47:07.465Z,7.28
2023-04-27T09:49:34.960Z,5.57
2023-04-27T09:52:01.833Z,8.43
2023-04-27T09:54:34.586Z,6.78
2023-04-27T09:57:36.628Z,7.47
2023-04-27T10:00:14.733Z,8.52
2023-04-27T10:03:21.056Z,7.72
2023-04-27T10:06:19.146Z,9.98
2023-04-27T10:08:46.509Z,8.15
2023-04-27T10:11:20.554Z,8.32
2023-04-27T10:13:55.402Z,7.97
2023-04-27T10:16:22.687Z,5.70
2023-04-27T10:18:55.571Z,6.03
2023-04-27T10:21:23.910Z,5.43
2023-04-27T10:23:52.447Z,6.13
2023-04-27T10:26:27.724Z,6.65
2023-04-27T10:29:09.139Z,7.40
2023-04-27T10:31:43.206Z,7.80
2023-04-27T10:34:15.681Z,7.75
2023-04-27T10:36:42.641Z,6.63
2023-04-27T10:39:29.936Z,6.60
2023-04-27T10:42:03.324Z,9.00
2023-04-27T10:44:33.457Z,11.45
2023-04-27T10:47:13.185Z,10.27
2023-04-27T10:49:40.645Z,7.63
2023-04-27T10:52:07.699Z,6.57
2023-04-27T10:54:36.721Z,8.93
2023-04-27T10:57:11.417Z,9.32
2023-04-27T10:59:51.266Z,13.90
2023-04-27T11:02:27.933Z,6.57
2023-04-27T11:04:56.475Z,8.25
2023-04-27T11:07:26.599Z,7.63
2023-04-27T11:09:54.303Z,8.98
2023-04-27T11:12:22.018Z,11.15
2023-04-27T11:14:48.995Z,7.75
2023-04-27T11:17:16.038Z,11.25
2023-04-27T11:19:49.903Z,10.38
2023-04-27T11:22:16.979Z,8.93
2023-04-27T11:24:52.111Z,9.45
2023-04-27T11:27:22.195Z,6.78
2023-04-27T11:29:49.064Z,9.50
2023-04-27T11:32:21.163Z,7.82
2023-04-27T11:34:55.185Z,7.18
2023-04-27T11:37:25.891Z,10.15
2023-04-27T11:39:54.779Z,9.32
2023-04-27T11:42:31.475Z,8.10
2023-04-27T11:45:09.107Z,7.78
2023-04-27T11:47:36.075Z,9.25
2023-04-27T11:50:07.865Z,8.38
2023-04-27T11:52:37.491Z,9.25
2023-04-27T11:55:05.716Z,8.93
2023-04-27T11:57:35.856Z,9.52
2023-04-27T12:00:14.553Z,8.00
2023-04-27T12:02:43.843Z,7.93
2023-04-27T12:05:13.226Z,7.95
2023-04-27T12:07:41.320Z,9.35
2023-04-27T12:10:09.070Z,7.85
2023-04-27T12:12:36.196Z,8.27
2023-04-27T12:15:03.412Z,9.18
2023-04-27T12:17:30.462Z,8.13
2023-04-27T12:19:57.396Z,8.60
2023-04-27T12:22:24.423Z,7.65
2023-04-27T12:24:51.731Z,7.72
2023-04-27T12:27:18.584Z,7.60
2023-04-27T12:29:45.428Z,7.60
2023-04-27T12:32:12.288Z,7.57
2023-04-27T12:34:39.547Z,8.68
2023-04-27T12:37:07.054Z,10.13
2023-04-27T12:39:36.510Z,8.07
2023-04-27T12:42:03.710Z,8.35
2023-04-27T12:44:30.723Z,7.55
2023-04-27T12:46:57.546Z,7.47
2023-04-27T12:49:24.420Z,9.40
2023-04-27T12:51:53.084Z,10.30
2023-04-27T12:54:20.245Z,7.50
2023-04-27T12:56:47.168Z,10.23
2023-04-27T12:59:14.088Z,8.20
2023-04-27T13:01:40.951Z,7.70
2023-04-27T13:04:08.110Z,8.50
2023-04-27T13:06:35.489Z,8.23
2023-04-27T13:09:02.912Z,8.05
2023-04-27T13:11:30.102Z,10.75
2023-04-27T13:13:57.014Z,9.93
2023-04-27T13:16:25.757Z,8.95
2023-04-27T13:18:55.516Z,9.45
2023-04-27T13:21:23.162Z,10.10
2023-04-27T13:23:51.190Z,8.18
2023-04-27T13:26:18.010Z,11.23
2023-04-27T13:28:44.851Z,8.65
2023-04-27T13:31:11.997Z,9.23
2023-04-27T13:33:42.268Z,7.65
2023-04-27T13:36:11.203Z,7.03
2023-04-27T13:38:38.309Z,7.32
2023-04-27T13:41:06.405Z,8.63
2023-04-27T13:43:33.359Z,10.00
2023-04-27T13:46:02.741Z,9.15
2023-04-27T13:48:31.062Z,7.47
2023-04-27T13:50:59.134Z,8.30
2023-04-27T13:53:26.561Z,9.27
2023-04-27T13:55:55.463Z,8.63
2023-04-27T13:58:25.600Z,7.93
2023-04-27T14:00:53.611Z,8.30
2023-04-27T14:03:21.659Z,6.90
2023-04-27T14:05:50.969Z,9.45
2023-04-27T14:08:18.717Z,11.48
2023-04-27T14:10:46.428Z,9.27
2023-04-27T14:13:13.610Z,7.50
2023-04-27T14:15:41.498Z,9.20
2023-04-27T14:18:09.883Z,8.52
2023-04-27T14:20:40.281Z,9.60
2023-04-27T14:23:09.044Z,7.88
2023-04-27T14:25:35.824Z,7.85
2023-04-27T14:28:05.597Z,10.07
2023-04-27T14:30:34.448Z,9.82
2023-04-27T14:33:01.685Z,11.95
2023-04-27T14:35:28.752Z,9.50
2023-04-27T14:37:57.189Z,11.00
2023-04-27T14:40:24.192Z,7.38
2023-04-27T14:42:51.092Z,7.45
2023-04-27T14:45:18.959Z,9.05
2023-04-27T14:47:45.973Z,10.48
2023-04-27T14:50:13.015Z,10.57
2023-04-27T14:52:39.907Z,7.50
2023-04-27T14:55:07.767Z,11.68
2023-04-27T14:57:35.428Z,10.75
2023-04-27T15:00:06.748Z,9.43
2023-04-27T15:02:34.353Z,8.65
2023-04-27T15:05:01.510Z,8.80
2023-04-27T15:07:28.491Z,8.45
2023-04-27T15:09:55.650Z,15.77
2023-04-27T15:12:22.528Z,9.55
2023-04-27T15:14:51.670Z,10.15
2023-04-27T15:17:18.595Z,9.55
2023-04-27T15:19:45.432Z,10.00
2023-04-27T15:22:14.490Z,7.97
2023-04-27T15:24:41.419Z,7.82
2023-04-27T15:27:09.885Z,10.60
2023-04-27T15:29:37.360Z,11.55
2023-04-27T15:32:04.539Z,8.52
2023-04-27T15:34:31.889Z,10.50
2023-04-27T15:36:58.739Z,9.30
2023-04-27T15:39:27.310Z,8.80
2023-04-27T15:41:54.159Z,9.93
2023-04-27T15:44:21.148Z,8.77
2023-04-27T15:46:48.043Z,9.75
2023-04-27T15:49:15.175Z,10.75
2023-04-27T15:51:42.278Z,11.70
2023-04-27T15:54:09.185Z,8.82
2023-04-27T15:56:36.050Z,10.20
2023-04-27T15:59:04.440Z,13.63
2023-04-27T16:01:31.413Z,12.75
2023-04-27T16:03:58.398Z,8.57
2023-04-27T16:06:33.321Z,7.68
2023-04-27T16:09:03.269Z,9.05
2023-04-27T16:11:31.574Z,9.63
2023-04-27T16:13:59.477Z,9.77
2023-04-27T16:16:26.886Z,8.38
2023-04-27T16:18:54.262Z,8.75
2023-04-27T16:21:21.429Z,13.35
2023-04-27T16:23:48.777Z,11.50
2023-04-27T16:26:15.617Z,9.07
2023-04-27T16:28:42.727Z,8.65
2023-04-27T16:31:10.071Z,10.73
2023-04-27T16:33:36.935Z,9.70
2023-04-27T16:36:04.112Z,10.50
2023-04-27T16:38:31.010Z,12.05
2023-04-27T16:40:58.416Z,12.38
2023-04-27T16:43:25.442Z,11.18
2023-04-27T16:45:52.290Z,11.80
2023-04-27T16:48:19.151Z,11.82
2023-04-27T16:50:46.949Z,11.80
2023-04-27T16:53:14.944Z,10.65
2023-04-27T16:55:41.849Z,10.90
2023-04-27T16:58:08.744Z,10.55
2023-04-27T17:00:35.633Z,10.82
2023-04-27T17:03:02.576Z,9.80
2023-04-27T17:05:29.831Z,10.57
2023-04-27T17:07:56.806Z,12.32
2023-04-27T17:10:23.959Z,9.63
2023-04-27T17:12:51.229Z,10.55
2023-04-27T17:15:18.453Z,9.57
2023-04-27T17:17:45.588Z,9.73
2023-04-27T17:20:13.297Z,10.63
2023-04-27T17:22:40.125Z,9.95
2023-04-27T17:25:08.611Z,8.73
2023-04-27T17:27:35.494Z,13.25
2023-04-27T17:30:02.632Z,11.55
2023-04-27T17:32:29.609Z,12.75
2023-04-27T17:34:57.601Z,10.43
2023-04-27T17:37:24.514Z,8.55
2023-04-27T17:39:52.958Z,10.63
2023-04-27T17:42:20.548Z,12.30
2023-04-27T17:44:47.422Z,8.35
2023-04-27T17:47:14.518Z,11.27
2023-04-27T17:49:41.358Z,10.00
2023-04-27T17:52:08.283Z,12.90
2023-04-27T17:54:35.136Z,12.68
2023-04-27T17:57:02.077Z,12.90
2023-04-27T17:59:28.979Z,9.23
2023-04-27T18:01:56.020Z,11.27
2023-04-27T18:04:23.199Z,12.98
2023-04-27T18:06:50.201Z,10.35
2023-04-27T18:09:17.588Z,10.55
2023-04-27T18:11:44.583Z,11.25
2023-04-27T18:14:11.539Z,12.50
2023-04-27T18:16:38.479Z,9.65
2023-04-27T18:19:05.347Z,9.07
2023-04-27T18:21:32.724Z,10.20
2023-04-27T18:23:59.660Z,8.65
2023-04-27T18:26:26.750Z,10.80
2023-04-27T18:28:53.867Z,9.82
2023-04-27T18:31:20.810Z,8.90
2023-04-27T18:33:47.904Z,11.55
2023-04-27T18:36:14.804Z,11.48
2023-04-27T18:38:41.629Z,10.57
2023-04-27T18:41:08.607Z,12.57
2023-04-27T18:43:38.907Z,10.90
2023-04-27T18:46:06.387Z,9.48
2023-04-27T18:48:33.399Z,11.63
2023-04-27T18:51:00.417Z,10.45
2023-04-27T18:53:28.239Z,10.18
2023-04-27T18:55:55.260Z,9.40
2023-04-27T18:58:22.202Z,9.95
2023-04-27T19:00:49.149Z,10.63
2023-04-27T19:03:16.574Z,11.02
2023-04-27T19:05:44.104Z,12.05
2023-04-27T19:08:11.300Z,8.32
2023-04-27T19:10:41.879Z,11.13
2023-04-27T19:13:08.721Z,9.07
2023-04-27T19:15:35.764Z,11.35
2023-04-27T19:18:10.448Z,9.02
2023-04-27T19:20:39.587Z,10.32
2023-04-27T19:23:07.981Z,11.43
2023-04-27T19:25:35.326Z,9.52
2023-04-27T19:28:02.171Z,12.02
2023-04-27T19:30:29.037Z,12.07
2023-04-27T19:32:55.864Z,10.85
2023-04-27T19:35:23.930Z,14.50
2023-04-27T19:37:51.229Z,11.80
2023-04-27T19:40:18.387Z,9.23
2023-04-27T19:42:45.525Z,9.27
2023-04-27T19:45:12.586Z,10.55
2023-04-27T19:47:39.638Z,10.82
2023-04-27T19:50:07.112Z,11.30
2023-04-27T19:52:34.185Z,9.38
2023-04-27T19:55:01.074Z,9.98
2023-04-27T19:57:27.996Z,11.55
2023-04-27T19:59:54.966Z,9.65
2023-04-27T20:02:21.918Z,12.10
2023-04-27T20:04:49.052Z,9.20
2023-04-27T20:07:16.178Z,15.02
2023-04-27T20:09:43.169Z,10.95
2023-04-27T20:12:23.712Z,10.73
2023-04-27T20:14:57.811Z,11.43
2023-04-27T20:17:27.428Z,13.48
2023-04-27T20:19:56.276Z,12.25
2023-04-27T20:22:23.953Z,11.93
2023-04-27T20:24:50.981Z,8.98
2023-04-27T20:27:17.988Z,9.55
2023-04-27T20:29:47.138Z,11.15
2023-04-27T20:32:14.043Z,7.30
2023-04-27T20:34:40.963Z,11.48
2023-04-27T20:37:07.958Z,17.85
2023-04-27T20:39:35.101Z,9.27
2023-04-27T20:42:02.080Z,12.55
2023-04-27T20:44:28.937Z,10.80
2023-04-27T20:46:55.806Z,9.50
2023-04-27T20:49:32.062Z,10.80
2023-04-27T20:52:01.686Z,10.65
2023-04-27T20:54:30.937Z,10.27
2023-04-27T20:56:57.831Z,9.35
2023-04-27T20:59:24.724Z,12.65
2023-04-27T21:01:51.806Z,10.70
2023-04-27T21:04:19.089Z,12.43
2023-04-27T21:06:46.254Z,9.25
2023-04-27T21:09:13.184Z,9.75
2023-04-27T21:11:40.094Z,12.00
2023-04-27T21:14:06.971Z,11.30
2023-04-27T21:16:33.861Z,11.00
2023-04-27T21:19:00.794Z,11.73
2023-04-27T21:21:27.615Z,12.20
2023-04-27T21:24:04.252Z,8.45
2023-04-27T21:26:33.864Z,11.38
2023-04-27T21:29:01.501Z,12.68
2023-04-27T21:31:28.467Z,14.00
2023-04-27T21:33:55.323Z,18.13
2023-04-27T21:36:22.211Z,9.27
2023-04-27T21:38:49.413Z,13.73
2023-04-27T21:41:17.451Z,11.68
2023-04-27T21:43:45.055Z,11.60
2023-04-27T21:46:12.037Z,10.77
2023-04-27T21:48:38.965Z,11.75
2023-04-27T21:51:05.992Z,12.82
2023-04-27T21:53:32.989Z,11.60
2023-04-27T21:56:00.295Z,14.07
2023-04-27T21:58:27.184Z,11.90
2023-04-27T22:00:54.075Z,10.68
2023-04-27T22:03:21.811Z,10.55
2023-04-27T22:05:50.270Z,11.68
2023-04-27T22:08:20.175Z,10.25
2023-04-27T22:10:47.218Z,12.23
2023-04-27T22:15:44.213Z,11.90
2023-04-27T22:18:11.154Z,11.10
2023-04-27T22:20:38.576Z,9.95
2023-04-27T22:23:05.431Z,11.75
2023-04-27T22:25:34.143Z,12.18
2023-04-27T22:28:01.760Z,11.15
2023-04-27T22:30:31.544Z,10.73
2023-04-27T22:32:58.513Z,10.88
2023-04-27T22:35:27.600Z,12.07
2023-04-27T22:38:01.140Z,10.55
2023-04-27T22:40:28.106Z,10.07
2023-04-27T22:42:55.497Z,14.43
2023-04-27T22:45:23.741Z,14.55
2023-04-27T22:47:51.025Z,13.43
2023-04-27T22:50:18.157Z,12.18
2023-04-27T22:52:45.307Z,13.75
2023-04-27T22:55:14.881Z,10.82
2023-04-27T22:57:41.961Z,19.40
2023-04-27T23:00:11.436Z,13.15
2023-04-27T23:02:42.762Z,11.75
2023-04-27T23:05:13.108Z,11.30
2023-04-27T23:07:43.865Z,12.23
2023-04-27T23:10:11.225Z,11.00
2023-04-27T23:12:38.784Z,10.05
2023-04-27T23:15:06.334Z,9.70
2023-04-27T23:17:33.657Z,13.63
2023-04-27T23:20:11.188Z,9.88
2023-04-27T23:22:43.635Z,10.68
2023-04-27T23:25:11.374Z,11.93
2023-04-27T23:27:38.216Z,12.10
2023-04-27T23:30:05.939Z,13.48
2023-04-27T23:32:33.206Z,12.80
2023-04-27T23:35:00.377Z,18.58
2023-04-27T23:37:27.240Z,12.63
2023-04-27T23:39:54.086Z,15.00
2023-04-27T23:42:20.893Z,15.40
2023-04-27T23:44:47.762Z,13.70
2023-04-27T23:47:14.662Z,15.55
2023-04-27T23:49:44.781Z,16.70
2023-04-27T23:52:12.233Z,14.68
2023-04-27T23:54:39.128Z,14.75
2023-04-27T23:57:06.582Z,14.70
2023-04-27T23:59:37.263Z,10.70
